Aviation Digital Data Service (ADDS)

Output produced by TAFs form (2339 UTC 18 July 2018)
found at http://www.aviationweather.gov/adds/tafs/
 
RJOB 182300Z VRB01KT 8000 NSC 28/24 Q1012
TAF RJOB 182316Z 1900/2006 17005KT 9999 FEW020 SCT040 
     TEMPO 1906/1910 TS FEW020 FEW025CB SCT040 
     BECMG 1909/1911 04004KT